Time;durP1;ratioP1;P1;durP2;ratioP2;P2;SDS_P1;SDS_P2;PMS_P1;PMS_P2;Temp;Humidity;BMP_temperature;BMP_pressure;BME280_temperature;BME280_humidity;BME280_pressure;Samples;Min_cycle;Max_cycle;Signal;HPM_P1;HPM_P2
2023/01/24 00:00:28;;;;;;;11.97;9.30;;;2.40;99.90;;;;;;5035631;28;20231;-43
2023/01/24 00:02:53;;;;;;;14.57;10.03;;;2.40;99.90;;;;;;5017602;28;20204;-44
2023/01/24 00:05:19;;;;;;;12.53;8.77;;;2.40;99.90;;;;;;5035688;28;20165;-44
2023/01/24 00:07:45;;;;;;;14.10;10.30;;;2.40;99.90;;;;;;5035825;28;20188;-44
2023/01/24 00:10:11;;;;;;;13.20;9.03;;;2.40;99.90;;;;;;5035273;28;20189;-43
2023/01/24 00:12:37;;;;;;;12.47;9.57;;;2.40;99.90;;;;;;5035317;28;20236;-45
2023/01/24 00:15:03;;;;;;;13.13;9.30;;;2.40;99.90;;;;;;5035485;28;20266;-44
2023/01/24 00:17:28;;;;;;;13.33;8.33;;;2.50;99.90;;;;;;5035292;28;20189;-44
2023/01/24 00:19:54;;;;;;;13.50;9.03;;;2.50;99.90;;;;;;5017253;28;20327;-43
2023/01/24 00:22:19;;;;;;;14.90;9.77;;;2.50;99.90;;;;;;5034998;28;20205;-43
2023/01/24 00:24:45;;;;;;;13.90;9.30;;;2.50;99.90;;;;;;5035101;28;20571;-43
2023/01/24 00:27:11;;;;;;;13.33;10.00;;;2.50;99.90;;;;;;5034972;28;20192;-44
2023/01/24 00:29:37;;;;;;;15.97;10.63;;;2.40;99.90;;;;;;5035086;28;20537;-42
2023/01/24 00:32:02;;;;;;;17.37;11.03;;;2.50;99.90;;;;;;5034583;28;20564;-44
2023/01/24 00:34:28;;;;;;;15.47;11.67;;;2.50;99.90;;;;;;5035028;28;20185;-42
2023/01/24 00:36:54;;;;;;;16.37;10.30;;;2.50;99.90;;;;;;5034723;28;20188;-45
2023/01/24 00:39:19;;;;;;;14.17;10.53;;;2.50;99.90;;;;;;5034717;28;20212;-43
2023/01/24 00:41:45;;;;;;;15.83;10.50;;;2.50;99.90;;;;;;5016846;28;20208;-44
2023/01/24 00:44:11;;;;;;;16.97;11.43;;;2.40;99.90;;;;;;5034919;28;20200;-43
2023/01/24 00:46:36;;;;;;;18.40;12.40;;;2.40;99.90;;;;;;5016841;28;20656;-42
2023/01/24 00:49:02;;;;;;;17.33;11.53;;;2.40;99.90;;;;;;5034728;28;20180;-43
2023/01/24 00:51:28;;;;;;;18.33;14.03;;;2.50;99.90;;;;;;5034394;28;20554;-43
2023/01/24 00:53:53;;;;;;;21.53;14.40;;;2.40;99.90;;;;;;5016962;28;20188;-44
2023/01/24 00:56:19;;;;;;;19.60;13.43;;;2.40;99.90;;;;;;5016627;28;20184;-44
2023/01/24 00:58:44;;;;;;;19.47;12.03;;;2.50;99.90;;;;;;5034521;28;20220;-44
2023/01/24 01:01:10;;;;;;;19.37;12.67;;;2.50;99.90;;;;;;5034633;28;20180;-43
2023/01/24 01:03:36;;;;;;;21.43;13.97;;;2.40;99.90;;;;;;5034332;28;20287;-43
2023/01/24 01:06:07;;;;;;;19.63;13.40;;;2.40;99.90;;;;;;5035016;28;20188;-44
2023/01/24 01:08:33;;;;;;;18.50;12.83;;;2.40;99.90;;;;;;5034518;28;20180;-43
2023/01/24 01:11:00;;;;;;;19.83;13.23;;;2.40;99.90;;;;;;5034238;28;20184;-42
2023/01/24 01:13:26;;;;;;;20.43;13.10;;;2.40;99.90;;;;;;5016929;28;20204;-43
2023/01/24 01:15:59;;;;;;;18.40;12.83;;;2.40;99.90;;;;;;5034918;28;20183;-43
2023/01/24 01:18:24;;;;;;;18.27;12.90;;;2.40;99.90;;;;;;5016569;28;20177;-44
2023/01/24 01:20:50;;;;;;;19.50;13.20;;;2.40;99.90;;;;;;5034282;28;20231;-42
2023/01/24 01:23:16;;;;;;;22.47;13.83;;;2.40;99.90;;;;;;5016442;28;20200;-43
2023/01/24 01:25:42;;;;;;;19.17;13.10;;;2.40;99.90;;;;;;5034379;28;20262;-41
2023/01/24 01:28:07;;;;;;;17.60;11.27;;;2.40;99.90;;;;;;5016593;28;20573;-43
2023/01/24 01:30:33;;;;;;;20.20;11.93;;;2.40;99.90;;;;;;5034294;28;20181;-42
2023/01/24 01:32:58;;;;;;;21.60;14.40;;;2.50;99.90;;;;;;5034463;28;20619;-42
2023/01/24 01:35:24;;;;;;;19.83;13.90;;;2.40;99.90;;;;;;5033817;28;20231;-41
2023/01/24 01:37:49;;;;;;;20.30;14.07;;;2.50;99.90;;;;;;5034123;28;20184;-43
2023/01/24 01:40:17;;;;;;;23.40;15.40;;;2.50;99.90;;;;;;5033843;28;20707;-44
2023/01/24 01:42:54;;;;;;;22.80;14.47;;;2.40;99.90;;;;;;5033967;28;20689;-42
2023/01/24 01:45:32;;;;;;;19.23;13.60;;;2.40;99.90;;;;;;5033635;28;20639;-42
2023/01/24 01:47:59;;;;;;;22.73;14.90;;;2.40;99.90;;;;;;5016415;28;20180;-44
2023/01/24 01:50:33;;;;;;;23.33;14.47;;;2.40;99.90;;;;;;5033686;28;20180;-44
2023/01/24 01:52:58;;;;;;;20.90;14.00;;;2.40;99.90;;;;;;5016098;28;20201;-42
2023/01/24 01:55:27;;;;;;;20.17;13.73;;;2.40;99.90;;;;;;5033960;28;20725;-43
2023/01/24 01:57:54;;;;;;;19.87;14.03;;;2.40;99.90;;;;;;5016140;28;20185;-44
2023/01/24 02:00:23;;;;;;;22.23;15.13;;;2.40;99.90;;;;;;5033766;28;20205;-42
2023/01/24 02:02:53;;;;;;;20.63;14.30;;;2.40;99.90;;;;;;5033854;28;20196;-43
2023/01/24 02:05:23;;;;;;;21.90;14.30;;;2.30;99.90;;;;;;5033972;28;20161;-42
2023/01/24 02:07:56;;;;;;;19.63;13.53;;;2.30;99.90;;;;;;5033590;28;20219;-44
2023/01/24 02:10:24;;;;;;;20.97;13.40;;;2.40;99.90;;;;;;5033581;28;20193;-43
2023/01/24 02:12:53;;;;;;;21.90;14.33;;;2.40;99.90;;;;;;5033331;28;20667;-43
2023/01/24 02:18:08;;;;;;;20.83;13.33;;;2.30;99.90;;;;;;5033594;28;20231;-44
2023/01/24 02:20:39;;;;;;;24.10;13.93;;;2.30;99.90;;;;;;5033408;28;20292;-44
2023/01/24 02:23:22;;;;;;;19.97;13.57;;;2.30;99.90;;;;;;5033475;28;20311;-43
2023/01/24 02:25:57;;;;;;;21.23;13.10;;;2.30;99.90;;;;;;5033159;28;20782;-44
2023/01/24 02:28:23;;;;;;;20.23;12.70;;;2.30;99.90;;;;;;5033593;28;20263;-42
2023/01/24 02:30:49;;;;;;;23.47;12.97;;;2.30;99.90;;;;;;5033322;28;20315;-44
2023/01/24 02:33:18;;;;;;;18.23;12.83;;;2.30;99.90;;;;;;5015250;28;20204;-44
2023/01/24 02:35:45;;;;;;;20.87;14.83;;;2.30;99.90;;;;;;5033383;28;20177;-43
2023/01/24 02:38:19;;;;;;;21.60;14.63;;;2.30;99.90;;;;;;5033297;28;20633;-42
2023/01/24 02:40:46;;;;;;;19.83;13.30;;;2.30;99.90;;;;;;5033313;28;20522;-44
2023/01/24 02:43:13;;;;;;;20.10;13.30;;;2.30;99.90;;;;;;5033136;28;20193;-42
2023/01/24 02:45:39;;;;;;;19.20;13.57;;;2.30;99.90;;;;;;5033453;28;20240;-42
2023/01/24 02:48:05;;;;;;;18.13;12.67;;;2.30;99.90;;;;;;5015282;28;20585;-43
2023/01/24 02:53:29;;;;;;;19.13;12.33;;;2.30;99.90;;;;;;5033215;28;20254;-41
2023/01/24 02:58:38;;;;;;;17.67;11.90;;;2.30;99.90;;;;;;5037216;28;20172;-43
2023/01/24 03:01:04;;;;;;;18.37;12.00;;;2.30;99.90;;;;;;5036902;28;20652;-44
2023/01/24 03:03:29;;;;;;;18.73;12.47;;;2.30;99.90;;;;;;5036571;28;20541;-42
2023/01/24 03:05:56;;;;;;;19.13;11.97;;;2.20;99.90;;;;;;5036481;28;20240;-43
2023/01/24 03:08:27;;;;;;;16.60;11.97;;;2.20;99.90;;;;;;5019309;28;20691;-43
2023/01/24 03:10:53;;;;;;;15.27;10.73;;;2.20;99.90;;;;;;5037751;28;20177;-41
2023/01/24 03:35:15;;;;;;;15.93;11.17;;;2.20;99.90;;;;;;5036522;28;20190;-43
2023/01/24 03:40:25;;;;;;;16.87;11.80;;;2.30;99.90;;;;;;5036396;28;20199;-43
2023/01/24 03:42:51;;;;;;;16.17;11.03;;;2.20;99.90;;;;;;5035743;28;20196;-42
2023/01/24 03:45:23;;;;;;;18.27;11.90;;;2.30;99.90;;;;;;5018215;28;20173;-43
2023/01/24 03:47:55;;;;;;;16.53;11.97;;;2.20;99.90;;;;;;5035952;28;20204;-44
2023/01/24 03:53:10;;;;;;;18.40;10.80;;;2.20;99.90;;;;;;5036026;28;20207;-43
2023/01/24 03:55:37;;;;;;;16.00;11.20;;;2.20;99.90;;;;;;5035347;28;20192;-45
2023/01/24 03:58:03;;;;;;;19.53;12.33;;;2.20;99.90;;;;;;5017834;28;20192;-43
2023/01/24 04:00:29;;;;;;;17.73;12.37;;;2.20;99.90;;;;;;5017784;28;20227;-44
2023/01/24 04:02:55;;;;;;;16.87;11.57;;;2.20;99.90;;;;;;5035229;28;20260;-43
2023/01/24 04:05:21;;;;;;;17.37;12.03;;;2.20;99.90;;;;;;5035971;28;20574;-43
2023/01/24 04:07:49;;;;;;;17.00;11.67;;;2.20;99.90;;;;;;5034665;28;20173;-43
2023/01/24 04:10:15;;;;;;;18.73;11.93;;;2.20;99.90;;;;;;5035711;28;20189;-42
2023/01/24 04:12:42;;;;;;;18.50;11.30;;;2.20;99.90;;;;;;5035137;28;20204;-45
2023/01/24 04:15:08;;;;;;;16.90;11.57;;;2.20;99.90;;;;;;5017917;28;20180;-43
2023/01/24 04:17:34;;;;;;;16.37;10.90;;;2.20;99.90;;;;;;5035361;28;20185;-44
2023/01/24 04:20:00;;;;;;;21.27;12.43;;;2.20;99.90;;;;;;5035327;28;20212;-44
2023/01/24 04:22:25;;;;;;;20.80;11.83;;;2.20;99.90;;;;;;5049644;22;20177;-46
2023/01/24 04:24:51;;;;;;;17.87;11.23;;;2.10;99.90;;;;;;5037003;28;20191;-48
2023/01/24 04:27:16;;;;;;;17.80;11.47;;;2.20;99.90;;;;;;5036621;28;20251;-48
2023/01/24 04:29:42;;;;;;;20.40;11.87;;;2.20;99.90;;;;;;5036763;28;20189;-49
2023/01/24 04:32:08;;;;;;;15.93;11.20;;;2.10;99.90;;;;;;5036886;28;20203;-47
2023/01/24 04:34:33;;;;;;;19.03;12.13;;;2.10;99.90;;;;;;5019290;28;20188;-49
2023/01/24 04:36:59;;;;;;;14.57;10.83;;;2.10;99.90;;;;;;5037122;28;20185;-48
2023/01/24 04:39:25;;;;;;;16.97;11.37;;;2.10;99.90;;;;;;5019816;28;20308;-48
2023/01/24 04:41:50;;;;;;;23.07;14.47;;;2.10;99.90;;;;;;5036722;28;20227;-47
2023/01/24 04:44:16;;;;;;;18.23;11.80;;;2.10;99.90;;;;;;5036553;28;20228;-48
2023/01/24 04:46:41;;;;;;;17.13;10.33;;;2.10;99.90;;;;;;5036732;28;20664;-47
2023/01/24 04:49:07;;;;;;;16.17;10.43;;;2.10;99.90;;;;;;5036470;28;20203;-48
2023/01/24 04:51:32;;;;;;;14.47;9.20;;;2.10;99.90;;;;;;5036105;28;20271;-49
2023/01/24 04:53:58;;;;;;;16.37;9.60;;;2.10;99.90;;;;;;5036357;28;20260;-49
2023/01/24 04:56:24;;;;;;;13.40;9.73;;;2.10;99.90;;;;;;5036929;28;20172;-48
2023/01/24 04:58:49;;;;;;;17.27;10.67;;;2.10;99.90;;;;;;5036602;28;20212;-48
2023/01/24 05:01:15;;;;;;;14.57;9.40;;;2.10;99.90;;;;;;5036767;28;20255;-47
2023/01/24 05:03:40;;;;;;;14.80;10.17;;;2.10;99.90;;;;;;5036677;28;20197;-49
2023/01/24 05:06:06;;;;;;;14.23;9.63;;;2.00;99.90;;;;;;5036657;28;20260;-49
2023/01/24 05:08:31;;;;;;;16.50;10.90;;;2.10;99.90;;;;;;5036716;28;20181;-49
2023/01/24 05:11:03;;;;;;;14.10;10.37;;;2.00;99.90;;;;;;5036325;28;20177;-49
2023/01/24 05:13:28;;;;;;;17.10;10.70;;;2.10;99.90;;;;;;5036951;28;20287;-48
2023/01/24 05:15:54;;;;;;;18.87;11.23;;;2.10;99.90;;;;;;5018885;28;20615;-49
2023/01/24 05:18:19;;;;;;;16.40;11.60;;;2.10;99.90;;;;;;5036633;28;20191;-50
2023/01/24 05:20:45;;;;;;;19.87;10.57;;;2.10;99.90;;;;;;5036289;28;20278;-49
2023/01/24 05:23:10;;;;;;;18.17;11.53;;;2.00;99.90;;;;;;5036375;28;20221;-48
2023/01/24 05:25:36;;;;;;;15.63;11.10;;;2.10;99.90;;;;;;5039159;28;20184;-49
2023/01/24 05:28:02;;;;;;;16.80;10.90;;;2.10;99.90;;;;;;5038718;28;20185;-47
2023/01/24 05:30:27;;;;;;;17.33;10.53;;;2.00;99.90;;;;;;5036225;28;20177;-47
2023/01/24 05:32:56;;;;;;;15.83;11.03;;;2.00;99.90;;;;;;5036175;28;20193;-46
2023/01/24 05:35:22;;;;;;;18.87;11.47;;;2.00;99.90;;;;;;5036980;28;20256;-48
2023/01/24 05:37:48;;;;;;;15.70;10.57;;;2.00;99.90;;;;;;5036130;28;20578;-47
2023/01/24 05:40:14;;;;;;;16.67;10.90;;;2.00;99.90;;;;;;5036465;28;20219;-48
2023/01/24 05:42:43;;;;;;;15.73;11.63;;;2.00;99.90;;;;;;5037352;28;20243;-47
2023/01/24 05:45:10;;;;;;;17.13;11.57;;;2.00;99.90;;;;;;5036527;28;20169;-47
2023/01/24 05:47:35;;;;;;;15.60;10.83;;;2.00;99.90;;;;;;5018450;28;20620;-47
2023/01/24 05:50:01;;;;;;;19.30;12.13;;;2.00;99.90;;;;;;5036317;28;20338;-47
2023/01/24 05:52:26;;;;;;;18.53;11.67;;;2.00;99.90;;;;;;5035892;28;20211;-48
2023/01/24 05:54:52;;;;;;;17.40;10.47;;;2.00;99.90;;;;;;5036822;28;20519;-46
2023/01/24 05:57:18;;;;;;;14.00;10.43;;;2.00;99.90;;;;;;5036645;28;20181;-48
2023/01/24 05:59:44;;;;;;;15.73;10.23;;;2.00;99.90;;;;;;5036375;28;20205;-48
2023/01/24 06:02:09;;;;;;;13.93;10.13;;;2.00;99.90;;;;;;5036000;28;20260;-48
2023/01/24 06:04:35;;;;;;;14.70;9.00;;;2.00;99.90;;;;;;5036521;28;20256;-49
2023/01/24 06:07:01;;;;;;;15.00;9.50;;;2.00;99.90;;;;;;5036682;28;20679;-47
2023/01/24 06:09:26;;;;;;;13.33;8.53;;;2.00;99.90;;;;;;5035993;28;20180;-47
2023/01/24 06:11:52;;;;;;;13.53;9.30;;;2.00;99.90;;;;;;5036261;28;20262;-48
2023/01/24 06:14:18;;;;;;;13.37;9.20;;;2.00;99.90;;;;;;5035438;28;20173;-47
2023/01/24 06:16:44;;;;;;;12.90;9.50;;;2.00;99.90;;;;;;5033262;28;20177;-47
2023/01/24 06:19:11;;;;;;;12.63;8.57;;;2.00;99.90;;;;;;5033289;28;20236;-47
2023/01/24 06:21:37;;;;;;;12.90;8.63;;;1.90;99.90;;;;;;5033251;28;20188;-47
2023/01/24 06:24:04;;;;;;;12.70;9.30;;;2.00;99.90;;;;;;5033040;28;20201;-47
2023/01/24 06:26:31;;;;;;;12.87;9.43;;;1.90;99.90;;;;;;5033359;28;20239;-47
2023/01/24 06:28:56;;;;;;;14.73;10.00;;;2.00;99.90;;;;;;5033121;28;20188;-47
2023/01/24 06:31:33;;;;;;;14.57;10.60;;;2.00;99.90;;;;;;5036713;28;20271;-47
2023/01/24 06:34:40;;;;;;;13.73;9.63;;;1.90;99.90;;;;;;5037549;28;20210;-47
2023/01/24 06:37:20;;;;;;;15.67;10.57;;;2.00;99.90;;;;;;5037421;28;20541;-48
2023/01/24 06:39:50;;;;;;;13.93;10.40;;;1.90;99.90;;;;;;5037070;28;20635;-48
2023/01/24 06:42:17;;;;;;;15.07;10.40;;;2.00;99.90;;;;;;5037056;28;20204;-48
2023/01/24 06:44:43;;;;;;;15.23;10.73;;;2.00;99.90;;;;;;5019565;28;20181;-46
2023/01/24 06:47:10;;;;;;;15.57;11.63;;;2.00;99.90;;;;;;5036985;28;20190;-47
2023/01/24 06:49:37;;;;;;;16.10;10.57;;;2.00;99.90;;;;;;5036677;28;20185;-48
2023/01/24 06:52:02;;;;;;;16.37;9.90;;;2.00;99.90;;;;;;5018856;28;20235;-47
2023/01/24 06:54:28;;;;;;;14.93;10.23;;;2.00;99.90;;;;;;5036612;28;20231;-47
2023/01/24 06:56:54;;;;;;;13.90;10.10;;;2.00;99.90;;;;;;5036596;28;20185;-46
2023/01/24 06:59:22;;;;;;;15.67;9.87;;;1.90;99.90;;;;;;5036707;28;20209;-46
2023/01/24 07:01:48;;;;;;;12.87;9.30;;;1.90;99.90;;;;;;5036856;28;20205;-46
2023/01/24 07:04:14;;;;;;;16.27;10.10;;;1.90;99.90;;;;;;5036623;28;20201;-50
2023/01/24 07:06:39;;;;;;;15.27;10.73;;;1.90;99.90;;;;;;5036866;28;20632;-48
2023/01/24 07:09:05;;;;;;;15.33;10.30;;;1.90;99.90;;;;;;5036297;28;20181;-47
2023/01/24 07:11:31;;;;;;;12.97;9.53;;;1.90;99.90;;;;;;5036203;28;20180;-49
2023/01/24 07:13:56;;;;;;;12.90;8.83;;;1.90;99.90;;;;;;5036256;28;20190;-48
2023/01/24 07:16:22;;;;;;;12.63;9.13;;;1.90;99.90;;;;;;5036213;28;20181;-49
2023/01/24 07:18:47;;;;;;;12.13;9.13;;;1.90;99.90;;;;;;5036345;28;20270;-48
2023/01/24 07:21:13;;;;;;;16.83;10.53;;;1.90;99.90;;;;;;5036123;28;20172;-48
2023/01/24 07:23:44;;;;;;;14.13;9.63;;;1.90;99.90;;;;;;5035980;28;20227;-47
2023/01/24 07:26:11;;;;;;;12.67;8.90;;;1.90;99.90;;;;;;5036724;28;20169;-48
2023/01/24 07:28:39;;;;;;;13.37;9.10;;;1.90;99.90;;;;;;5036355;28;20744;-47
2023/01/24 07:31:06;;;;;;;13.37;9.43;;;1.90;99.90;;;;;;5036193;28;20177;-48
2023/01/24 07:33:31;;;;;;;12.43;8.90;;;1.90;99.90;;;;;;5036264;28;20216;-47
2023/01/24 07:35:57;;;;;;;12.50;8.80;;;1.90;99.90;;;;;;5035954;28;20180;-48
2023/01/24 07:38:23;;;;;;;14.90;8.70;;;1.90;99.90;;;;;;5036050;28;20185;-44
2023/01/24 07:40:48;;;;;;;12.27;9.03;;;1.90;99.90;;;;;;5035354;28;20217;-45
2023/01/24 07:43:14;;;;;;;12.67;8.37;;;1.90;99.90;;;;;;5035124;28;20253;-45
2023/01/24 07:45:40;;;;;;;13.47;9.13;;;1.90;99.90;;;;;;5035964;28;20184;-44
2023/01/24 07:48:09;;;;;;;14.13;9.40;;;2.00;99.90;;;;;;5035922;28;20187;-42
2023/01/24 07:50:35;;;;;;;13.60;8.40;;;1.90;99.90;;;;;;5035942;28;20251;-44
2023/01/24 07:53:00;;;;;;;14.67;9.37;;;1.90;99.90;;;;;;5035542;28;20203;-44
2023/01/24 07:55:26;;;;;;;12.43;9.03;;;2.00;99.90;;;;;;5036036;28;20184;-43
2023/01/24 07:57:58;;;;;;;12.70;9.10;;;2.00;99.90;;;;;;5017706;28;20192;-42
2023/01/24 08:00:24;;;;;;;13.63;8.83;;;2.00;99.90;;;;;;5035621;28;20200;-44
2023/01/24 08:02:50;;;;;;;15.27;9.50;;;2.00;99.90;;;;;;5035331;28;20224;-44
2023/01/24 08:05:15;;;;;;;16.13;10.27;;;2.00;99.90;;;;;;5035925;28;20227;-45
2023/01/24 08:07:41;;;;;;;13.50;8.80;;;2.00;99.90;;;;;;5035281;28;20177;-44
2023/01/24 08:10:08;;;;;;;12.73;9.37;;;1.90;99.90;;;;;;5035176;28;20192;-44
2023/01/24 08:12:34;;;;;;;12.23;8.83;;;1.90;99.90;;;;;;5017637;28;20731;-44
2023/01/24 08:14:59;;;;;;;13.93;8.47;;;2.00;99.90;;;;;;5035315;28;20219;-43
2023/01/24 08:17:25;;;;;;;12.47;8.57;;;2.00;99.90;;;;;;5035144;28;20196;-43
2023/01/24 08:19:50;;;;;;;11.57;8.53;;;2.00;99.90;;;;;;5035190;28;20691;-43
2023/01/24 08:22:16;;;;;;;12.17;8.53;;;2.00;99.90;;;;;;5034955;28;20243;-43
2023/01/24 08:24:41;;;;;;;10.90;7.83;;;2.00;99.90;;;;;;5034992;28;20599;-43
2023/01/24 08:27:07;;;;;;;13.57;8.50;;;2.10;99.90;;;;;;5034981;28;20173;-42
2023/01/24 08:29:33;;;;;;;12.33;8.60;;;2.10;99.90;;;;;;5035020;28;20196;-44
2023/01/24 08:31:58;;;;;;;11.73;8.27;;;2.10;99.90;;;;;;5035018;28;20208;-44
2023/01/24 08:34:24;;;;;;;12.23;8.73;;;2.10;99.90;;;;;;5034824;28;20181;-42
2023/01/24 08:36:50;;;;;;;12.97;8.80;;;2.10;99.90;;;;;;5035084;28;20200;-44
2023/01/24 08:39:16;;;;;;;11.37;8.23;;;2.10;99.90;;;;;;5034848;28;20679;-44
2023/01/24 08:41:46;;;;;;;13.93;8.80;;;2.20;99.90;;;;;;5034557;28;20199;-43
2023/01/24 08:44:12;;;;;;;11.23;8.30;;;2.20;99.90;;;;;;5034558;28;20196;-43
2023/01/24 08:46:38;;;;;;;11.73;8.70;;;2.40;99.90;;;;;;5035247;28;20189;-43
2023/01/24 08:49:04;;;;;;;10.20;8.03;;;2.20;99.90;;;;;;5034853;28;20607;-43
2023/01/24 08:51:30;;;;;;;12.53;7.53;;;2.20;99.90;;;;;;5034773;28;20238;-45
2023/01/24 08:53:55;;;;;;;13.27;9.03;;;2.20;99.90;;;;;;5034253;28;20180;-43
2023/01/24 08:56:21;;;;;;;12.43;8.57;;;2.20;99.90;;;;;;5034639;28;20180;-45
2023/01/24 08:58:46;;;;;;;15.40;8.67;;;2.30;99.90;;;;;;5034538;28;20655;-43
2023/01/24 09:01:12;;;;;;;12.90;8.57;;;2.30;99.90;;;;;;5034938;28;20184;-42
2023/01/24 09:03:38;;;;;;;11.87;8.10;;;2.30;99.90;;;;;;5034435;28;20626;-45
2023/01/24 09:06:04;;;;;;;12.60;8.03;;;2.30;99.90;;;;;;5035993;28;20223;-46
2023/01/24 09:08:30;;;;;;;13.13;8.37;;;2.40;99.90;;;;;;5036504;28;20184;-47
2023/01/24 09:10:59;;;;;;;12.10;8.33;;;2.30;99.90;;;;;;5036702;28;20195;-47
2023/01/24 09:13:25;;;;;;;13.17;8.30;;;2.40;99.90;;;;;;5036578;28;20208;-48
2023/01/24 09:15:51;;;;;;;12.67;8.13;;;2.40;99.90;;;;;;5036423;28;20184;-47
2023/01/24 09:18:17;;;;;;;12.17;8.60;;;2.40;99.90;;;;;;5035866;28;20186;-47
2023/01/24 09:20:43;;;;;;;13.50;8.37;;;2.40;99.90;;;;;;5036589;28;20294;-47
2023/01/24 09:23:11;;;;;;;14.07;9.23;;;2.40;99.90;;;;;;5036848;28;20216;-47
2023/01/24 09:25:37;;;;;;;13.53;9.50;;;2.40;99.90;;;;;;5036191;28;20199;-48
2023/01/24 09:28:03;;;;;;;10.80;7.97;;;2.40;99.90;;;;;;5036236;28;20656;-47
2023/01/24 09:30:29;;;;;;;13.93;8.93;;;2.40;99.90;;;;;;5036510;28;20176;-47
2023/01/24 09:32:54;;;;;;;12.40;8.70;;;2.50;99.90;;;;;;5036512;28;20216;-49
2023/01/24 09:35:20;;;;;;;12.30;8.63;;;2.50;99.90;;;;;;5036366;28;20275;-48
2023/01/24 09:37:45;;;;;;;14.40;9.93;;;2.50;99.90;;;;;;5036197;28;20227;-48
2023/01/24 09:40:25;;;;;;;15.33;9.77;;;2.50;99.90;;;;;;5018563;28;20215;-44
2023/01/24 09:43:10;;;;;;;15.90;10.83;;;2.50;99.90;;;;;;5036484;28;20204;-45
2023/01/24 09:45:49;;;;;;;15.77;10.50;;;2.50;99.90;;;;;;5037174;28;20177;-47
2023/01/24 09:48:18;;;;;;;14.43;8.73;;;2.50;99.90;;;;;;5036886;28;20617;-48
2023/01/24 09:50:52;;;;;;;13.97;9.60;;;2.50;99.90;;;;;;5036399;28;20200;-47
2023/01/24 09:53:39;;;;;;;14.53;9.10;;;2.50;99.90;;;;;;5036252;28;20204;-47
2023/01/24 09:56:11;;;;;;;14.13;9.67;;;2.50;99.90;;;;;;5036759;28;20196;-47
2023/01/24 09:58:42;;;;;;;15.23;11.33;;;2.50;99.90;;;;;;5036403;28;20659;-45
2023/01/24 10:01:11;;;;;;;16.17;11.60;;;2.50;99.90;;;;;;5036610;28;20161;-48
2023/01/24 10:03:38;;;;;;;14.53;10.47;;;2.50;99.90;;;;;;5036284;28;20664;-46
2023/01/24 10:06:18;;;;;;;15.90;11.40;;;2.50;99.90;;;;;;5035860;28;20180;-48
2023/01/24 10:09:21;;;;;;;16.87;12.80;;;2.60;99.90;;;;;;5036596;28;20536;-47
2023/01/24 10:11:52;;;;;;;17.17;10.50;;;2.50;99.90;;;;;;5036631;28;20200;-47
2023/01/24 10:14:26;;;;;;;16.47;10.03;;;2.60;99.90;;;;;;5037019;28;20183;-47
2023/01/24 10:17:14;;;;;;;14.30;9.90;;;2.50;99.90;;;;;;5037101;28;20183;-49
2023/01/24 10:20:01;;;;;;;14.90;9.40;;;2.60;99.90;;;;;;5037058;28;20648;-48
2023/01/24 10:22:40;;;;;;;13.33;9.73;;;2.60;99.90;;;;;;5036708;28;20272;-48
2023/01/24 10:25:11;;;;;;;14.07;9.43;;;2.60;99.90;;;;;;5036489;28;20267;-47
2023/01/24 10:27:42;;;;;;;12.47;9.10;;;2.60;99.90;;;;;;5037398;28;20165;-47
2023/01/24 10:30:16;;;;;;;14.10;8.93;;;2.60;99.90;;;;;;5037365;28;20169;-48
2023/01/24 10:32:44;;;;;;;17.30;9.77;;;2.70;99.90;;;;;;5037004;28;20201;-47
2023/01/24 10:35:19;;;;;;;12.60;9.27;;;2.80;99.90;;;;;;5037134;28;20513;-48
2023/01/24 10:37:50;;;;;;;13.70;8.87;;;2.80;99.90;;;;;;5037616;28;20215;-48
2023/01/24 10:40:17;;;;;;;18.23;9.50;;;2.80;99.90;;;;;;5037281;28;20193;-46
2023/01/24 10:42:43;;;;;;;13.80;9.83;;;2.80;99.90;;;;;;5037436;28;20197;-48
2023/01/24 10:45:30;;;;;;;13.40;9.13;;;2.80;99.90;;;;;;5037213;28;20181;-47
2023/01/24 10:48:01;;;;;;;14.13;9.43;;;2.90;99.90;;;;;;5004044;28;20256;-47
2023/01/24 10:50:35;;;;;;;15.47;9.23;;;2.90;99.90;;;;;;5037444;28;20195;-49
2023/01/24 10:53:21;;;;;;;13.37;9.27;;;2.90;99.90;;;;;;5037009;28;20197;-48
2023/01/24 10:55:47;;;;;;;13.40;9.73;;;2.90;99.90;;;;;;5036726;28;20195;-47
2023/01/24 10:58:29;;;;;;;17.77;10.07;;;2.90;99.90;;;;;;5037042;28;20236;-49
2023/01/24 11:00:57;;;;;;;18.03;9.80;;;2.90;99.90;;;;;;5037339;28;20205;-49
2023/01/24 11:03:27;;;;;;;18.63;10.70;;;2.90;99.90;;;;;;5037203;28;20688;-48
2023/01/24 11:05:55;;;;;;;16.23;10.77;;;3.00;99.90;;;;;;5037395;28;20236;-47
2023/01/24 11:08:23;;;;;;;16.57;11.17;;;3.00;99.90;;;;;;5037096;28;20211;-49
2023/01/24 11:10:59;;;;;;;18.47;11.73;;;3.00;99.90;;;;;;5037141;28;20177;-47
2023/01/24 11:13:37;;;;;;;19.37;12.20;;;3.00;99.90;;;;;;5037299;28;20204;-48
2023/01/24 11:16:17;;;;;;;17.37;11.90;;;2.90;99.90;;;;;;5038484;28;20168;-47
2023/01/24 11:19:02;;;;;;;16.23;10.13;;;2.90;99.90;;;;;;5040533;28;20217;-49
2023/01/24 11:21:31;;;;;;;15.13;10.50;;;2.90;99.90;;;;;;5040657;28;20165;-47
2023/01/24 11:24:01;;;;;;;18.20;11.53;;;2.90;99.90;;;;;;5039283;28;20199;-48
2023/01/24 11:26:35;;;;;;;16.40;11.17;;;2.90;99.90;;;;;;5039467;28;20201;-47
2023/01/24 11:29:06;;;;;;;17.60;11.57;;;2.90;99.90;;;;;;5039123;28;20235;-48
2023/01/24 11:31:35;;;;;;;13.23;9.23;;;2.90;99.90;;;;;;5039440;28;20173;-49
2023/01/24 11:34:21;;;;;;;13.63;9.67;;;2.90;99.90;;;;;;5039352;28;20208;-49
2023/01/24 11:36:52;;;;;;;13.03;9.77;;;2.80;99.90;;;;;;5039120;28;20177;-48
2023/01/24 11:39:36;;;;;;;14.77;9.43;;;2.80;99.90;;;;;;5020710;28;20216;-49
2023/01/24 11:42:14;;;;;;;14.90;10.00;;;2.70;99.90;;;;;;5038306;28;20292;-49
2023/01/24 11:44:46;;;;;;;14.07;9.97;;;2.70;99.90;;;;;;5039469;28;20173;-48
2023/01/24 11:47:18;;;;;;;19.60;10.77;;;2.70;99.90;;;;;;5022162;28;20177;-46
2023/01/24 11:50:26;;;;;;;15.23;10.40;;;2.70;99.90;;;;;;5039661;28;20247;-47
2023/01/24 11:53:20;;;;;;;14.37;10.67;;;2.80;99.90;;;;;;5002556;28;20562;-48
2023/01/24 11:55:51;;;;;;;15.50;10.10;;;2.80;99.90;;;;;;5039792;28;20185;-47
2023/01/24 11:58:34;;;;;;;14.43;10.00;;;2.80;99.90;;;;;;5039677;28;20544;-48
2023/01/24 12:01:10;;;;;;;15.33;10.50;;;2.80;99.90;;;;;;5039316;28;20211;-48
2023/01/24 12:03:38;;;;;;;15.97;10.80;;;2.80;99.90;;;;;;5039506;28;20255;-46
2023/01/24 12:06:16;;;;;;;15.33;11.10;;;2.80;99.90;;;;;;5038756;28;20181;-48
2023/01/24 12:09:17;;;;;;;15.37;10.87;;;2.80;99.90;;;;;;5037805;28;20169;-48
2023/01/24 12:11:43;;;;;;;14.97;11.10;;;2.80;99.90;;;;;;5038369;28;20303;-47
2023/01/24 12:14:17;;;;;;;15.57;10.53;;;2.70;99.90;;;;;;5037767;28;20205;-46
2023/01/24 12:17:20;;;;;;;13.90;9.17;;;2.80;99.90;;;;;;5038355;28;20244;-48
2023/01/24 12:19:54;;;;;;;17.07;11.33;;;2.70;99.90;;;;;;5038541;28;20215;-48
2023/01/24 12:22:27;;;;;;;17.33;10.93;;;2.80;99.90;;;;;;5038619;28;20196;-47
2023/01/24 12:25:01;;;;;;;15.23;11.23;;;2.80;99.90;;;;;;5038006;28;20161;-48
2023/01/24 12:27:29;;;;;;;19.33;11.47;;;2.80;99.90;;;;;;5037816;28;20168;-48
2023/01/24 12:30:15;;;;;;;17.53;10.67;;;2.80;99.90;;;;;;5038682;28;20179;-46
2023/01/24 12:32:52;;;;;;;21.30;14.27;;;2.80;99.90;;;;;;5037449;28;20294;-48
2023/01/24 12:35:31;;;;;;;17.03;12.23;;;2.80;99.90;;;;;;5037718;28;20248;-49
2023/01/24 12:38:00;;;;;;;19.93;13.30;;;2.90;99.90;;;;;;5018696;28;20696;-49
2023/01/24 12:40:34;;;;;;;16.80;11.60;;;2.80;99.90;;;;;;5037527;28;20215;-49
2023/01/24 12:43:19;;;;;;;16.33;12.23;;;2.90;99.90;;;;;;5037579;28;20315;-48
2023/01/24 12:45:50;;;;;;;19.87;13.37;;;2.90;99.90;;;;;;5037706;28;20236;-47
2023/01/24 12:48:35;;;;;;;18.10;12.67;;;2.90;99.90;;;;;;5037543;28;20173;-48
2023/01/24 12:51:12;;;;;;;19.13;11.27;;;2.90;99.90;;;;;;5037850;28;20169;-47
2023/01/24 12:53:49;;;;;;;20.53;14.10;;;2.90;99.90;;;;;;5037246;28;20196;-48
2023/01/24 12:56:27;;;;;;;19.40;13.40;;;3.00;99.90;;;;;;5037516;28;20194;-49
2023/01/24 12:58:55;;;;;;;21.17;15.53;;;3.00;99.90;;;;;;5037325;28;20165;-47
2023/01/24 13:01:25;;;;;;;20.67;12.13;;;3.00;99.90;;;;;;5036811;28;20256;-48
2023/01/24 13:04:00;;;;;;;17.70;12.47;;;3.00;99.90;;;;;;5036959;28;20531;-49
2023/01/24 13:06:34;;;;;;;17.00;11.30;;;3.10;99.90;;;;;;5037216;28;20639;-48
2023/01/24 13:09:09;;;;;;;17.10;11.97;;;3.10;99.90;;;;;;5036893;28;20172;-49
2023/01/24 13:11:44;;;;;;;20.47;13.17;;;3.10;99.90;;;;;;5036671;28;20259;-46
2023/01/24 13:14:32;;;;;;;17.87;12.87;;;3.10;99.90;;;;;;5036632;28;20168;-49
2023/01/24 13:17:04;;;;;;;21.87;13.73;;;3.10;99.90;;;;;;5037111;28;20173;-49
2023/01/24 13:19:53;;;;;;;19.63;13.03;;;3.20;99.90;;;;;;5037776;28;20247;-49
2023/01/24 13:22:21;;;;;;;18.13;10.47;;;3.20;99.90;;;;;;5035827;28;20215;-49
2023/01/24 13:25:02;;;;;;;17.70;12.27;;;3.20;99.90;;;;;;5035448;28;20258;-49
2023/01/24 13:27:52;;;;;;;16.40;11.47;;;3.10;99.90;;;;;;5035567;28;20161;-48